Time;durP1;ratioP1;P1;durP2;ratioP2;P2;SDS_P1;SDS_P2;PMS_P1;PMS_P2;Temp;Humidity;BMP_temperature;BMP_pressure;BME280_temperature;BME280_humidity;BME280_pressure;Samples;Min_cycle;Max_cycle;Signal;HPM_P1;HPM_P2
2023/03/31 00:00:29;;;;;;;11.75;1.98;;;10.60;99.90;;;;;;5093494;28;20054;-73
2023/03/31 00:02:56;;;;;;;6.20;1.90;;;10.70;99.90;;;;;;5093364;28;20518;-73
2023/03/31 00:05:23;;;;;;;8.65;2.53;;;10.70;99.90;;;;;;5075528;28;20052;-73
2023/03/31 00:07:54;;;;;;;7.45;2.35;;;10.70;99.90;;;;;;5093433;28;20052;-74
2023/03/31 00:10:21;;;;;;;5.85;1.50;;;10.80;99.90;;;;;;5093440;28;20131;-73
2023/03/31 00:12:47;;;;;;;13.27;3.42;;;10.70;99.90;;;;;;5075886;28;20054;-75
2023/03/31 00:15:13;;;;;;;8.77;2.20;;;10.70;99.90;;;;;;5093180;28;20060;-73
2023/03/31 00:17:38;;;;;;;9.35;2.85;;;10.70;99.90;;;;;;5076320;28;20423;-73
2023/03/31 00:20:08;;;;;;;6.20;2.10;;;10.80;99.90;;;;;;5092999;28;20044;-74
2023/03/31 00:22:37;;;;;;;9.95;2.78;;;10.80;99.90;;;;;;5095541;28;20131;-73
2023/03/31 00:25:04;;;;;;;8.05;2.55;;;10.70;99.90;;;;;;5097386;28;20044;-73
2023/03/31 00:27:29;;;;;;;10.43;2.47;;;10.60;99.90;;;;;;5097336;28;20048;-73
2023/03/31 00:29:55;;;;;;;11.95;2.75;;;10.50;99.90;;;;;;5097285;28;20461;-74
2023/03/31 00:32:21;;;;;;;6.30;1.60;;;10.40;99.90;;;;;;5062517;28;20052;-73
2023/03/31 00:34:46;;;;;;;7.82;2.17;;;10.30;99.90;;;;;;5097805;28;20040;-72
2023/03/31 00:37:13;;;;;;;6.18;1.73;;;10.20;99.90;;;;;;5097164;28;20048;-73
2023/03/31 00:39:40;;;;;;;9.52;2.75;;;10.20;99.90;;;;;;5097090;28;20051;-72
2023/03/31 00:42:07;;;;;;;8.02;2.65;;;10.20;99.90;;;;;;5079958;28;20385;-73
2023/03/31 00:44:58;;;;;;;7.25;2.10;;;10.00;99.90;;;;;;5097483;28;20059;-74
2023/03/31 00:47:28;;;;;;;8.43;2.17;;;10.00;99.90;;;;;;5097191;28;20443;-73
2023/03/31 00:49:56;;;;;;;12.13;2.78;;;10.00;99.90;;;;;;5097199;28;20419;-72
2023/03/31 00:52:31;;;;;;;9.40;2.05;;;9.90;99.90;;;;;;5078606;28;20473;-72
2023/03/31 00:55:01;;;;;;;9.43;2.30;;;9.90;99.90;;;;;;5096946;28;20044;-73
2023/03/31 00:57:31;;;;;;;11.68;2.38;;;9.80;99.90;;;;;;5096897;28;20054;-73
2023/03/31 01:00:00;;;;;;;7.43;2.10;;;9.80;99.90;;;;;;5097237;28;20098;-73
2023/03/31 01:02:27;;;;;;;6.65;2.35;;;9.70;99.90;;;;;;5096741;28;20056;-73
2023/03/31 01:05:00;;;;;;;7.30;2.17;;;9.70;99.90;;;;;;5096578;28;20396;-73
2023/03/31 01:07:34;;;;;;;8.70;2.72;;;9.60;99.90;;;;;;5097161;28;20075;-73
2023/03/31 01:10:03;;;;;;;7.78;2.03;;;9.50;99.90;;;;;;5096535;28;20055;-72
2023/03/31 01:12:31;;;;;;;8.43;3.13;;;9.50;99.90;;;;;;5096555;28;20048;-73
2023/03/31 01:14:58;;;;;;;8.50;2.78;;;9.50;99.90;;;;;;5096231;28;20373;-73
2023/03/31 01:17:28;;;;;;;8.38;2.60;;;9.60;99.90;;;;;;5096407;28;20051;-72
2023/03/31 01:20:17;;;;;;;7.13;2.30;;;9.70;99.90;;;;;;5079182;28;20079;-73
2023/03/31 01:22:58;;;;;;;7.68;2.75;;;9.70;99.90;;;;;;5096142;28;20044;-73
2023/03/31 01:25:51;;;;;;;8.00;2.92;;;9.70;99.90;;;;;;5096339;28;20056;-73
2023/03/31 01:28:45;;;;;;;7.55;2.67;;;9.80;99.90;;;;;;5096201;28;20079;-73
2023/03/31 01:31:35;;;;;;;7.18;2.53;;;9.70;99.90;;;;;;5096456;28;20083;-73
2023/03/31 01:34:22;;;;;;;7.47;3.10;;;9.80;99.90;;;;;;5096563;28;20088;-73
2023/03/31 01:37:20;;;;;;;7.65;2.65;;;9.70;99.90;;;;;;5078991;28;20052;-72
2023/03/31 01:40:07;;;;;;;9.05;3.03;;;9.80;99.90;;;;;;5096556;28;20059;-73
2023/03/31 01:42:58;;;;;;;6.80;2.80;;;9.80;99.90;;;;;;5096627;28;20055;-73
2023/03/31 01:45:42;;;;;;;7.15;2.70;;;9.70;99.90;;;;;;5061586;28;20051;-73
2023/03/31 01:48:17;;;;;;;8.50;2.95;;;9.80;99.90;;;;;;5096337;28;20048;-73
2023/03/31 01:50:47;;;;;;;7.18;2.75;;;9.80;99.90;;;;;;5095752;28;20048;-73
2023/03/31 01:53:30;;;;;;;10.80;3.28;;;9.70;99.90;;;;;;5096182;28;20047;-73
2023/03/31 01:56:01;;;;;;;8.50;2.80;;;9.70;99.90;;;;;;5096181;28;20043;-73
2023/03/31 01:59:08;;;;;;;6.93;2.53;;;9.70;99.90;;;;;;5095585;28;20086;-73
2023/03/31 02:01:40;;;;;;;7.90;2.50;;;9.80;99.90;;;;;;5095346;28;20044;-73
2023/03/31 02:04:30;;;;;;;5.53;2.75;;;9.70;99.90;;;;;;5095515;28;20040;-72
2023/03/31 02:07:02;;;;;;;9.75;2.75;;;9.70;99.90;;;;;;5095511;28;20048;-73
2023/03/31 02:09:36;;;;;;;5.82;2.45;;;9.70;99.90;;;;;;5095515;28;20121;-73
2023/03/31 02:12:07;;;;;;;6.53;2.42;;;9.70;99.90;;;;;;5095947;28;20040;-73
2023/03/31 02:14:36;;;;;;;8.25;2.47;;;9.70;99.90;;;;;;5095512;28;20499;-73
2023/03/31 02:17:04;;;;;;;6.20;2.03;;;9.70;99.90;;;;;;5094961;28;20511;-73
2023/03/31 02:19:40;;;;;;;8.90;2.42;;;9.70;99.90;;;;;;5095173;28;20074;-73
2023/03/31 02:22:07;;;;;;;5.03;2.58;;;9.70;99.90;;;;;;5095363;28;20040;-73
2023/03/31 02:24:36;;;;;;;7.10;2.88;;;9.70;99.90;;;;;;5095012;28;20054;-74
2023/03/31 02:27:15;;;;;;;6.63;2.30;;;9.70;99.90;;;;;;5077520;28;20059;-73
2023/03/31 02:29:41;;;;;;;5.80;2.40;;;9.70;99.90;;;;;;5095804;28;20125;-73
2023/03/31 02:32:26;;;;;;;5.22;2.08;;;9.70;99.90;;;;;;5077267;28;20051;-72
2023/03/31 02:34:54;;;;;;;6.15;2.35;;;9.70;99.90;;;;;;5094954;28;20050;-73
2023/03/31 02:37:20;;;;;;;8.82;3.08;;;9.70;99.90;;;;;;5061233;28;20051;-73
2023/03/31 02:39:50;;;;;;;9.07;2.83;;;9.70;99.90;;;;;;5094883;28;20040;-73
2023/03/31 02:42:17;;;;;;;6.15;2.40;;;9.70;99.90;;;;;;5094728;28;20083;-72
2023/03/31 02:44:42;;;;;;;5.32;2.22;;;9.70;99.90;;;;;;5094697;28;20089;-73
2023/03/31 02:47:12;;;;;;;4.78;2.30;;;9.70;99.90;;;;;;5076838;28;20048;-73
2023/03/31 02:49:42;;;;;;;4.80;2.22;;;9.70;99.90;;;;;;5076657;28;20052;-74
2023/03/31 02:52:37;;;;;;;5.28;2.20;;;9.80;99.90;;;;;;5077500;28;20048;-74
2023/03/31 02:55:18;;;;;;;6.03;1.90;;;9.90;99.90;;;;;;5094245;28;20058;-73
2023/03/31 02:57:44;;;;;;;5.10;2.25;;;9.80;99.90;;;;;;5076923;28;20085;-72
2023/03/31 03:00:31;;;;;;;6.40;2.08;;;9.90;99.90;;;;;;5094937;28;20048;-73
2023/03/31 03:03:00;;;;;;;;;;;9.90;99.90;;;;;;5094778;28;20044;-73
2023/03/31 03:05:57;;;;;;;5.18;1.60;;;9.90;99.90;;;;;;5094365;28;19924;-73
2023/03/31 03:08:29;;;;;;;4.18;1.88;;;10.00;99.90;;;;;;5077223;28;20105;-74
2023/03/31 03:11:05;;;;;;;5.55;2.10;;;10.00;99.90;;;;;;5094762;28;20055;-73
2023/03/31 03:13:51;;;;;;;6.00;2.03;;;10.00;99.90;;;;;;5095046;28;20119;-73
2023/03/31 03:16:26;;;;;;;8.35;2.28;;;10.10;99.90;;;;;;5094519;28;20461;-73
2023/03/31 03:18:56;;;;;;;4.70;1.50;;;10.00;99.90;;;;;;5094148;28;20044;-74
2023/03/31 03:21:22;;;;;;;6.93;2.20;;;10.00;99.90;;;;;;5094878;28;20047;-73
2023/03/31 03:23:47;;;;;;;6.68;2.03;;;10.00;99.90;;;;;;5094388;28;20445;-73
2023/03/31 03:26:13;;;;;;;4.85;2.20;;;10.10;99.90;;;;;;5093756;28;20264;-73
2023/03/31 03:28:39;;;;;;;5.88;2.10;;;10.00;99.90;;;;;;5093706;28;20047;-73
2023/03/31 03:31:05;;;;;;;7.40;2.15;;;10.10;99.90;;;;;;5076124;28;20115;-72
2023/03/31 03:33:30;;;;;;;5.93;2.33;;;10.00;99.90;;;;;;5093697;28;20037;-73
2023/03/31 03:35:56;;;;;;;3.80;1.90;;;10.10;99.90;;;;;;5094029;28;20174;-72
2023/03/31 03:38:21;;;;;;;4.65;1.70;;;10.10;99.90;;;;;;5093781;28;20052;-73
2023/03/31 03:40:52;;;;;;;4.38;2.05;;;10.10;99.90;;;;;;5075898;28;20048;-72
2023/03/31 03:43:18;;;;;;;6.45;2.05;;;10.10;99.90;;;;;;5076083;28;20040;-72
2023/03/31 03:45:47;;;;;;;3.60;1.85;;;10.10;99.90;;;;;;5075899;28;20151;-73
2023/03/31 03:48:13;;;;;;;4.82;1.95;;;10.10;99.90;;;;;;5093322;28;20488;-73
2023/03/31 03:50:40;;;;;;;5.72;1.88;;;10.10;99.90;;;;;;5075824;28;20054;-73
2023/03/31 03:53:06;;;;;;;4.47;1.90;;;10.00;99.90;;;;;;5076524;28;20044;-74
2023/03/31 03:55:32;;;;;;;4.93;2.20;;;10.00;99.90;;;;;;5093281;28;20471;-73
2023/03/31 03:57:58;;;;;;;4.00;2.03;;;10.00;99.90;;;;;;5093128;28;20491;-73
2023/03/31 04:00:24;;;;;;;4.57;2.33;;;10.00;99.90;;;;;;5094316;28;20044;-73
2023/03/31 04:02:50;;;;;;;9.07;2.33;;;9.90;99.90;;;;;;5093460;28;20472;-73
2023/03/31 04:05:16;;;;;;;5.35;2.53;;;9.80;99.90;;;;;;5093699;28;20135;-73
2023/03/31 04:07:42;;;;;;;4.70;2.35;;;9.80;99.90;;;;;;5093403;28;20047;-73
2023/03/31 04:10:08;;;;;;;4.53;2.33;;;9.80;99.90;;;;;;5093314;28;20043;-73
2023/03/31 04:12:34;;;;;;;6.03;2.40;;;9.70;99.90;;;;;;5093378;28;20047;-72
2023/03/31 04:15:00;;;;;;;3.50;2.00;;;9.70;99.90;;;;;;5075168;28;20056;-72
2023/03/31 04:17:33;;;;;;;4.90;2.60;;;9.70;99.90;;;;;;5094219;28;20487;-73
2023/03/31 04:20:04;;;;;;;4.97;2.42;;;9.70;99.90;;;;;;5093403;28;20052;-72
2023/03/31 04:22:34;;;;;;;4.60;2.30;;;9.60;99.90;;;;;;5093729;28;20052;-72
2023/03/31 04:25:09;;;;;;;4.93;2.22;;;9.60;99.90;;;;;;5093217;28;20044;-73
2023/03/31 04:27:35;;;;;;;5.50;2.30;;;9.60;99.90;;;;;;5093850;28;20043;-72
2023/03/31 04:30:01;;;;;;;5.10;2.20;;;9.50;99.90;;;;;;5093182;28;20136;-72
2023/03/31 04:32:27;;;;;;;5.22;2.30;;;9.50;99.90;;;;;;5058663;28;20044;-72
2023/03/31 04:35:01;;;;;;;6.57;2.40;;;9.50;99.90;;;;;;5093214;28;20503;-71
2023/03/31 04:37:33;;;;;;;5.07;2.35;;;9.50;99.90;;;;;;5075654;28;20113;-73
2023/03/31 04:40:03;;;;;;;5.28;2.42;;;9.50;99.90;;;;;;5075447;28;20062;-72
2023/03/31 04:42:29;;;;;;;6.88;2.42;;;9.50;99.90;;;;;;5093390;28;20481;-72
2023/03/31 04:44:55;;;;;;;6.63;2.40;;;9.50;99.90;;;;;;5093317;28;20131;-72
2023/03/31 04:47:20;;;;;;;8.32;3.10;;;9.50;99.90;;;;;;5093035;28;20044;-72
2023/03/31 04:49:46;;;;;;;5.13;2.60;;;9.50;99.90;;;;;;5093577;28;20036;-72
2023/03/31 04:52:12;;;;;;;4.38;2.50;;;9.50;99.90;;;;;;5092943;28;20491;-73
2023/03/31 04:54:37;;;;;;;7.63;2.92;;;9.50;99.90;;;;;;5092943;28;20491;-72
2023/03/31 04:57:03;;;;;;;5.90;2.42;;;9.50;99.90;;;;;;5093079;28;20487;-72
2023/03/31 04:59:28;;;;;;;5.47;2.40;;;9.50;99.90;;;;;;5092890;28;20048;-72
2023/03/31 05:01:54;;;;;;;6.57;2.88;;;9.50;99.90;;;;;;5092952;28;20102;-72
2023/03/31 05:04:20;;;;;;;5.45;2.35;;;9.50;99.90;;;;;;5093331;28;20048;-71
2023/03/31 05:06:46;;;;;;;6.15;2.58;;;9.50;99.90;;;;;;5093201;28;20389;-72
2023/03/31 05:09:12;;;;;;;8.13;2.47;;;9.60;99.90;;;;;;5078078;28;20123;-72
2023/03/31 05:11:38;;;;;;;9.68;2.72;;;9.60;99.90;;;;;;5096513;28;20040;-72
2023/03/31 05:14:04;;;;;;;5.82;2.72;;;9.60;99.90;;;;;;5096449;28;20044;-72
2023/03/31 05:16:30;;;;;;;10.95;3.45;;;9.60;99.90;;;;;;5096195;28;20147;-72
2023/03/31 05:18:55;;;;;;;5.78;2.70;;;9.60;99.90;;;;;;5096224;28;20090;-72
2023/03/31 05:21:21;;;;;;;8.48;3.35;;;9.60;99.90;;;;;;5096323;28;20051;-76
2023/03/31 05:23:47;;;;;;;5.93;3.45;;;9.60;99.90;;;;;;5096695;28;20044;-73
2023/03/31 05:26:13;;;;;;;8.55;3.47;;;9.60;99.90;;;;;;5096253;28;20040;-72
2023/03/31 05:28:40;;;;;;;7.70;2.78;;;9.60;99.90;;;;;;5096153;28;20113;-74
2023/03/31 05:31:07;;;;;;;5.07;3.10;;;9.60;99.90;;;;;;5096159;28;20109;-72
2023/03/31 05:33:33;;;;;;;8.90;3.35;;;9.60;99.90;;;;;;5095750;28;20410;-72
2023/03/31 05:35:59;;;;;;;8.00;3.03;;;9.70;99.90;;;;;;5095649;28;20525;-72
2023/03/31 05:38:27;;;;;;;6.60;2.80;;;9.70;99.90;;;;;;5095843;28;20048;-72
2023/03/31 05:40:54;;;;;;;8.77;3.13;;;9.70;99.90;;;;;;5095621;28;20493;-72
2023/03/31 05:43:20;;;;;;;7.38;3.33;;;9.70;99.90;;;;;;5096249;28;20043;-73
2023/03/31 05:45:46;;;;;;;5.45;2.70;;;9.70;99.90;;;;;;5095749;28;20044;-72
2023/03/31 05:48:12;;;;;;;5.78;2.88;;;9.70;99.90;;;;;;5096936;28;20051;-72
2023/03/31 05:50:37;;;;;;;8.48;2.83;;;9.70;99.90;;;;;;5095695;28;20397;-71
2023/03/31 05:53:03;;;;;;;5.47;2.85;;;9.70;99.90;;;;;;5077833;28;20150;-72
2023/03/31 05:55:29;;;;;;;7.72;3.05;;;9.70;99.90;;;;;;5096428;28;20054;-72
2023/03/31 05:57:55;;;;;;;7.13;2.92;;;9.70;99.90;;;;;;5096136;28;20048;-71
2023/03/31 06:00:21;;;;;;;6.07;2.80;;;9.70;99.90;;;;;;5095642;28;20105;-72
2023/03/31 06:02:47;;;;;;;7.13;3.08;;;9.70;99.90;;;;;;5096060;28;20054;-70
2023/03/31 06:05:13;;;;;;;5.05;2.67;;;9.70;99.90;;;;;;5095739;28;20040;-70
2023/03/31 06:07:38;;;;;;;10.18;3.47;;;9.70;99.90;;;;;;5095472;28;20048;-71
2023/03/31 06:10:06;;;;;;;7.38;2.75;;;9.70;99.90;;;;;;5078303;28;20078;-70
2023/03/31 06:12:32;;;;;;;6.10;3.03;;;9.70;99.90;;;;;;5096204;28;20104;-70
2023/03/31 06:14:58;;;;;;;6.72;3.38;;;9.70;99.90;;;;;;5095612;28;20123;-66
2023/03/31 06:17:24;;;;;;;5.47;2.60;;;9.60;99.90;;;;;;5096379;28;20063;-65
2023/03/31 06:19:49;;;;;;;5.85;2.90;;;9.60;99.90;;;;;;5094800;28;20383;-65
2023/03/31 06:22:15;;;;;;;7.25;3.08;;;9.60;99.90;;;;;;5095058;28;20059;-65
2023/03/31 06:24:40;;;;;;;5.97;2.53;;;9.60;99.90;;;;;;5076928;28;20067;-65
2023/03/31 06:27:06;;;;;;;7.30;2.80;;;9.60;99.90;;;;;;5076723;28;20131;-65
2023/03/31 06:29:32;;;;;;;5.60;2.80;;;9.60;99.90;;;;;;5094916;28;20044;-65
2023/03/31 06:31:58;;;;;;;5.80;2.60;;;9.60;99.90;;;;;;5094973;28;20055;-65
2023/03/31 06:34:23;;;;;;;6.97;2.75;;;9.60;99.90;;;;;;5094884;28;20442;-65
2023/03/31 06:36:49;;;;;;;6.93;2.92;;;9.60;99.90;;;;;;5076790;28;20090;-66
2023/03/31 06:39:15;;;;;;;7.70;2.60;;;9.60;99.90;;;;;;5094696;28;20044;-68
2023/03/31 06:41:41;;;;;;;5.32;2.35;;;9.60;99.90;;;;;;5094793;28;20074;-65
2023/03/31 06:44:06;;;;;;;6.85;2.83;;;9.70;99.90;;;;;;5076649;28;20465;-65
2023/03/31 06:46:32;;;;;;;7.00;2.90;;;9.60;99.90;;;;;;5076518;28;20481;-65
2023/03/31 06:48:58;;;;;;;7.90;2.80;;;9.60;99.90;;;;;;5094822;28;20044;-66
2023/03/31 06:51:23;;;;;;;6.10;2.53;;;9.70;99.90;;;;;;5094257;28;20429;-65
2023/03/31 06:53:49;;;;;;;5.85;2.70;;;9.60;99.90;;;;;;5094308;28;20043;-65
2023/03/31 06:56:15;;;;;;;6.65;2.60;;;9.70;99.90;;;;;;5094486;28;20083;-65
2023/03/31 06:58:40;;;;;;;6.63;3.00;;;9.70;99.90;;;;;;5094376;28;20040;-64
2023/03/31 07:01:06;;;;;;;4.65;2.60;;;9.70;99.90;;;;;;5094243;28;20477;-64
2023/03/31 07:03:32;;;;;;;7.57;2.80;;;9.70;99.90;;;;;;5094219;28;20052;-66
2023/03/31 07:05:58;;;;;;;4.25;2.42;;;9.70;99.90;;;;;;5094340;28;20044;-65
2023/03/31 07:08:24;;;;;;;7.93;2.90;;;9.70;99.90;;;;;;5094251;28;20058;-65
2023/03/31 07:10:54;;;;;;;6.88;2.95;;;9.70;99.90;;;;;;5094244;28;20105;-65
2023/03/31 07:13:20;;;;;;;7.43;3.10;;;9.80;99.90;;;;;;5094446;28;20078;-65
2023/03/31 07:15:47;;;;;;;6.18;2.53;;;9.80;99.90;;;;;;5094237;28;20129;-65
2023/03/31 07:18:14;;;;;;;4.32;2.40;;;9.80;99.90;;;;;;5094960;28;20066;-66
2023/03/31 07:20:41;;;;;;;6.20;2.80;;;9.80;99.90;;;;;;5076881;28;20113;-67
2023/03/31 07:23:07;;;;;;;5.82;2.65;;;9.80;99.90;;;;;;5076705;28;20048;-66
2023/03/31 07:25:34;;;;;;;6.35;2.55;;;9.80;99.90;;;;;;5093967;28;20119;-67
2023/03/31 07:28:00;;;;;;;5.00;2.45;;;9.80;99.90;;;;;;5093946;28;20048;-66
2023/03/31 07:30:26;;;;;;;6.20;2.80;;;9.90;99.90;;;;;;5093688;28;20124;-67
2023/03/31 07:32:53;;;;;;;7.88;2.72;;;9.90;99.90;;;;;;5093364;28;20556;-71
2023/03/31 07:35:19;;;;;;;7.28;2.75;;;9.90;99.90;;;;;;5093684;28;20054;-73
2023/03/31 07:37:47;;;;;;;5.75;2.90;;;10.00;99.90;;;;;;5076562;28;20451;-74
2023/03/31 07:40:33;;;;;;;5.93;2.60;;;10.10;99.90;;;;;;5093433;28;20496;-72
2023/03/31 07:42:58;;;;;;;5.23;2.67;;;10.20;99.90;;;;;;5076324;28;20079;-72
2023/03/31 07:45:26;;;;;;;6.72;3.10;;;10.20;99.90;;;;;;5093636;28;20084;-73
2023/03/31 07:47:52;;;;;;;7.43;2.70;;;10.20;99.90;;;;;;5093601;28;20048;-74
2023/03/31 07:50:19;;;;;;;6.18;2.88;;;10.30;99.90;;;;;;5075723;28;20496;-73
2023/03/31 07:52:45;;;;;;;3.88;2.70;;;10.30;99.90;;;;;;5075661;28;20052;-73
2023/03/31 07:55:11;;;;;;;5.20;3.17;;;10.30;99.90;;;;;;5093132;28;20161;-73
2023/03/31 07:57:37;;;;;;;4.88;2.85;;;10.30;99.90;;;;;;5093489;28;20119;-73
2023/03/31 08:00:07;;;;;;;4.43;2.70;;;10.30;99.90;;;;;;5076417;28;20505;-73
2023/03/31 08:02:33;;;;;;;5.45;2.88;;;10.30;99.90;;;;;;5075904;28;20082;-72
2023/03/31 08:04:59;;;;;;;4.75;2.80;;;10.40;99.90;;;;;;5093363;28;20405;-73
2023/03/31 08:07:26;;;;;;;6.53;3.80;;;10.40;99.90;;;;;;5093622;28;20406;-73
2023/03/31 08:09:51;;;;;;;6.03;3.10;;;10.50;99.90;;;;;;5094119;28;20361;-72
2023/03/31 08:12:17;;;;;;;7.28;3.08;;;10.50;99.90;;;;;;5093233;28;20036;-72
2023/03/31 08:14:43;;;;;;;7.43;3.92;;;10.50;99.90;;;;;;5076214;28;20052;-72
2023/03/31 08:17:09;;;;;;;4.97;3.35;;;10.60;99.90;;;;;;5092927;28;20397;-73
2023/03/31 08:19:35;;;;;;;5.97;3.28;;;10.60;99.90;;;;;;5093552;28;20055;-72
2023/03/31 08:22:01;;;;;;;4.97;2.90;;;10.60;99.90;;;;;;5093711;28;20155;-74
2023/03/31 08:24:27;;;;;;;4.15;2.70;;;10.60;99.90;;;;;;5093125;28;20040;-74
2023/03/31 08:26:53;;;;;;;5.28;2.92;;;10.60;99.90;;;;;;5093545;28;20051;-72
2023/03/31 08:29:18;;;;;;;4.50;2.78;;;10.60;99.90;;;;;;5093105;28;20052;-73
2023/03/31 08:31:44;;;;;;;6.97;3.30;;;10.50;99.90;;;;;;5093151;28;20055;-75
2023/03/31 08:34:10;;;;;;;5.97;3.13;;;10.50;99.90;;;;;;5093610;28;20084;-76
2023/03/31 08:36:36;;;;;;;5.63;2.63;;;10.50;99.90;;;;;;5092906;28;20040;-74
2023/03/31 08:39:01;;;;;;;5.53;3.20;;;10.50;99.90;;;;;;5093655;28;20055;-74
2023/03/31 08:41:45;;;;;;;5.28;3.47;;;10.50;99.90;;;;;;5092873;28;20477;-73
2023/03/31 08:44:43;;;;;;;7.15;3.13;;;10.50;99.90;;;;;;5096066;28;20136;-74
2023/03/31 08:47:16;;;;;;;6.43;3.25;;;10.50;99.90;;;;;;5059057;28;20251;-73
2023/03/31 08:49:48;;;;;;;7.03;3.20;;;10.50;99.90;;;;;;5096576;28;20481;-71
2023/03/31 08:52:21;;;;;;;5.55;2.67;;;10.50;99.90;;;;;;5096865;28;20044;-73
2023/03/31 08:54:50;;;;;;;5.75;2.55;;;10.40;99.90;;;;;;5097203;28;20043;-74
2023/03/31 08:57:24;;;;;;;5.38;2.70;;;10.50;99.90;;;;;;5096687;28;20048;-73
2023/03/31 08:59:51;;;;;;;5.68;2.80;;;10.50;99.90;;;;;;5097219;28;20153;-73
2023/03/31 09:02:26;;;;;;;4.65;2.30;;;10.50;99.90;;;;;;5096545;28;20048;-73
2023/03/31 09:05:10;;;;;;;6.57;2.45;;;10.50;99.90;;;;;;5078634;28;20385;-72
2023/03/31 09:07:43;;;;;;;6.20;2.33;;;10.50;99.90;;;;;;5096951;28;20048;-73
2023/03/31 09:10:21;;;;;;;6.40;2.20;;;10.60;99.90;;;;;;5096103;28;20568;-72
2023/03/31 09:12:56;;;;;;;6.97;2.40;;;10.60;99.90;;;;;;5096404;28;20044;-73
2023/03/31 09:15:51;;;;;;;7.83;2.50;;;10.50;99.90;;;;;;5096116;28;20044;-71
2023/03/31 09:18:28;;;;;;;5.45;2.33;;;10.60;99.90;;;;;;5091216;28;20149;-73
2023/03/31 09:21:21;;;;;;;6.53;2.33;;;10.60;99.90;;;;;;5096764;28;20048;-72
2023/03/31 09:23:55;;;;;;;4.03;2.22;;;10.70;99.90;;;;;;5082707;28;20044;-74
2023/03/31 09:26:34;;;;;;;3.75;1.77;;;10.60;99.90;;;;;;5095809;28;20489;-73
2023/03/31 09:29:03;;;;;;;6.47;2.13;;;10.60;99.90;;;;;;5079260;28;20090;-73
2023/03/31 09:31:29;;;;;;;6.97;2.35;;;10.60;99.90;;;;;;5096182;28;20044;-73
2023/03/31 09:34:00;;;;;;;4.70;1.70;;;10.50;99.90;;;;;;5095989;28;20372;-71
2023/03/31 09:36:27;;;;;;;6.38;1.73;;;10.50;99.90;;;;;;5096683;28;20063;-72
2023/03/31 09:38:53;;;;;;;4.07;1.77;;;10.50;99.90;;;;;;5077990;28;20396;-73
2023/03/31 09:41:19;;;;;;;6.28;2.08;;;10.50;99.90;;;;;;5095990;28;20131;-73
2023/03/31 09:43:46;;;;;;;5.22;1.58;;;10.60;99.90;;;;;;5096281;28;20072;-72
2023/03/31 09:46:38;;;;;;;4.95;1.73;;;10.70;99.90;;;;;;5095736;28;20043;-71
2023/03/31 09:49:11;;;;;;;2.63;1.30;;;10.70;99.90;;;;;;5076826;28;20056;-72
2023/03/31 09:51:42;;;;;;;4.57;1.58;;;10.70;99.90;;;;;;5096243;28;20054;-73
2023/03/31 09:54:12;;;;;;;4.47;1.80;;;10.70;99.90;;;;;;5093980;28;20454;-72
2023/03/31 09:56:51;;;;;;;4.40;1.50;;;10.60;99.90;;;;;;5096114;28;20106;-72
2023/03/31 09:59:19;;;;;;;3.75;1.88;;;10.70;99.90;;;;;;5095492;28;20052;-72
2023/03/31 10:01:48;;;;;;;3.10;1.45;;;10.70;99.90;;;;;;5095399;28;20181;-71
2023/03/31 10:04:34;;;;;;;4.93;1.55;;;10.70;99.90;;;;;;5095767;28;20093;-72
2023/03/31 10:07:02;;;;;;;2.67;1.33;;;10.80;99.90;;;;;;5077885;28;20055;-71
2023/03/31 10:09:33;;;;;;;3.50;1.60;;;10.80;99.90;;;;;;5095765;28;20048;-73
2023/03/31 10:12:08;;;;;;;3.47;1.88;;;10.90;99.90;;;;;;5095106;28;20052;-72
2023/03/31 10:14:46;;;;;;;4.67;1.67;;;11.00;99.90;;;;;;5095215;28;20044;-72
2023/03/31 10:17:20;;;;;;;2.60;1.30;;;11.00;99.90;;;;;;5096182;28;20376;-72
2023/03/31 10:19:58;;;;;;;4.65;1.77;;;11.00;99.90;;;;;;5077532;28;20524;-72
2023/03/31 10:22:29;;;;;;;4.07;1.65;;;11.00;99.90;;;;;;5095416;28;20048;-73
2023/03/31 10:25:09;;;;;;;2.85;1.50;;;10.90;99.90;;;;;;5094860;28;20047;-73
2023/03/31 10:27:40;;;;;;;4.07;1.48;;;10.90;99.90;;;;;;5094976;28;20047;-73
2023/03/31 10:30:11;;;;;;;4.00;1.42;;;11.00;99.90;;;;;;5094855;28;20051;-73
2023/03/31 10:32:41;;;;;;;2.45;1.30;;;11.10;99.90;;;;;;5094839;28;20040;-72
2023/03/31 10:35:31;;;;;;;3.03;1.30;;;11.10;99.90;;;;;;5094681;28;20549;-72
2023/03/31 10:38:11;;;;;;;2.85;1.20;;;11.20;99.90;;;;;;5094861;28;20048;-74
2023/03/31 10:40:39;;;;;;;3.00;1.48;;;11.20;99.90;;;;;;5077562;28;20399;-72
2023/03/31 10:43:15;;;;;;;4.40;1.65;;;11.30;99.90;;;;;;5060255;28;20071;-71
2023/03/31 10:45:47;;;;;;;5.15;1.55;;;11.50;99.90;;;;;;5095188;28;20036;-73
2023/03/31 10:48:19;;;;;;;3.30;1.17;;;11.70;99.90;;;;;;5095054;28;20109;-72
2023/03/31 10:50:45;;;;;;;2.72;1.25;;;11.70;99.90;;;;;;5094433;28;20067;-72
2023/03/31 10:53:13;;;;;;;2.65;1.20;;;11.70;99.90;;;;;;5060511;28;20040;-73
2023/03/31 10:56:04;;;;;;;2.05;1.02;;;11.60;99.90;;;;;;5076531;28;20419;-72
2023/03/31 10:58:41;;;;;;;2.80;1.33;;;11.50;99.90;;;;;;5076734;28;20047;-72
2023/03/31 11:01:21;;;;;;;2.47;1.10;;;11.50;99.90;;;;;;5094791;28;20048;-71
2023/03/31 11:04:14;;;;;;;2.50;1.05;;;11.50;99.90;;;;;;5094591;28;20119;-72
2023/03/31 11:06:55;;;;;;;2.63;1.13;;;11.60;99.90;;;;;;5075664;28;20060;-73
2023/03/31 11:09:45;;;;;;;2.83;0.98;;;11.70;99.90;;;;;;5094251;28;20070;-73
2023/03/31 11:12:16;;;;;;;2.70;1.00;;;11.60;99.90;;;;;;5076499;28;20052;-73
2023/03/31 11:15:01;;;;;;;2.25;1.10;;;11.60;99.90;;;;;;5075944;28;20048;-72
2023/03/31 11:17:53;;;;;;;3.72;1.23;;;11.60;99.90;;;;;;5095199;28;20067;-73
2023/03/31 11:20:33;;;;;;;4.85;1.20;;;11.60;99.90;;;;;;5094205;28;20421;-72
2023/03/31 11:23:05;;;;;;;2.33;1.27;;;11.70;99.90;;;;;;5094295;28;20059;-72
2023/03/31 11:25:42;;;;;;;3.17;1.13;;;11.70;99.90;;;;;;5093983;28;20048;-74
2023/03/31 11:28:39;;;;;;;2.45;1.25;;;11.80;99.90;;;;;;5094317;28;20051;-71
2023/03/31 11:31:30;;;;;;;3.90;1.17;;;11.80;99.90;;;;;;5093730;28;20052;-73
2023/03/31 11:34:24;;;;;;;2.40;1.23;;;11.80;99.90;;;;;;5093692;28;20473;-72
2023/03/31 11:37:34;;;;;;;3.40;1.30;;;11.90;99.90;;;;;;5075550;28;20166;-72
2023/03/31 11:40:11;;;;;;;2.75;1.10;;;11.90;99.90;;;;;;5094213;28;20079;-73
2023/03/31 11:42:47;;;;;;;2.53;1.10;;;11.80;99.90;;;;;;5093835;28;20374;-74
2023/03/31 11:45:28;;;;;;;3.47;1.27;;;11.80;99.90;;;;;;5094025;28;20497;-72
2023/03/31 11:47:59;;;;;;;3.58;1.20;;;11.90;99.90;;;;;;5094136;28;20353;-73
2023/03/31 11:50:29;;;;;;;3.75;1.92;;;11.90;99.90;;;;;;5093309;28;20040;-72
2023/03/31 11:53:00;;;;;;;3.63;1.50;;;11.90;99.90;;;;;;5093536;28;20385;-72
2023/03/31 11:55:29;;;;;;;3.95;1.50;;;11.80;99.90;;;;;;5093344;28;20050;-72
2023/03/31 11:58:01;;;;;;;3.17;1.63;;;11.80;99.90;;;;;;5093128;28;20044;-72
2023/03/31 12:00:46;;;;;;;3.97;1.75;;;11.80;99.90;;;;;;5093281;28;20044;-71
2023/03/31 12:03:31;;;;;;;2.53;1.40;;;11.90;99.90;;;;;;5093571;28;20488;-71
2023/03/31 12:06:02;;;;;;;5.13;1.77;;;11.90;99.90;;;;;;5093684;28;20048;-74
2023/03/31 12:09:00;;;;;;;2.80;1.58;;;11.90;99.90;;;;;;5093932;28;20225;-71
2023/03/31 12:11:37;;;;;;;5.22;2.03;;;11.80;99.90;;;;;;5093388;28;20110;-72
2023/03/31 12:14:17;;;;;;;4.90;1.90;;;11.70;99.90;;;;;;5093354;28;20040;-71
2023/03/31 12:16:47;;;;;;;4.43;1.95;;;11.70;99.90;;;;;;5074974;28;20052;-72
2023/03/31 12:19:46;;;;;;;7.43;2.35;;;11.70;99.90;;;;;;5096855;28;20507;-72
2023/03/31 12:22:25;;;;;;;6.53;2.20;;;11.80;99.90;;;;;;5097372;28;20092;-76
2023/03/31 12:24:51;;;;;;;5.85;2.08;;;11.80;99.90;;;;;;5098187;28;20128;-72
2023/03/31 12:27:32;;;;;;;4.72;1.67;;;11.80;99.90;;;;;;5097383;28;20040;-73
2023/03/31 12:30:03;;;;;;;5.65;1.73;;;11.80;99.90;;;;;;5097857;28;20044;-72
2023/03/31 12:32:32;;;;;;;5.60;1.98;;;11.70;99.90;;;;;;5097339;28;20047;-72
2023/03/31 12:35:16;;;;;;;6.25;2.35;;;11.70;99.90;;;;;;5096925;28;20477;-71
2023/03/31 12:38:18;;;;;;;7.90;2.35;;;11.70;99.90;;;;;;5096692;28;20075;-73
2023/03/31 12:41:01;;;;;;;5.03;2.03;;;11.70;99.90;;;;;;5079308;28;20052;-72
2023/03/31 12:43:55;;;;;;;5.70;1.73;;;11.80;99.90;;;;;;5097471;28;20044;-72
2023/03/31 12:46:35;;;;;;;7.07;2.25;;;11.80;99.90;;;;;;5096819;28;20069;-72
2023/03/31 12:49:10;;;;;;;6.40;2.35;;;12.00;99.90;;;;;;5096816;28;20059;-73
2023/03/31 12:51:39;;;;;;;7.07;2.30;;;12.20;99.90;;;;;;5078953;28;20044;-73
2023/03/31 12:54:14;;;;;;;4.82;2.10;;;12.40;99.90;;;;;;5097446;28;20050;-73
2023/03/31 12:57:15;;;;;;;5.20;2.63;;;12.50;99.90;;;;;;5096869;28;20059;-74
2023/03/31 12:59:43;;;;;;;5.28;2.42;;;12.50;99.90;;;;;;5026935;28;20408;-74
2023/03/31 13:02:09;;;;;;;5.32;2.53;;;12.50;99.90;;;;;;5096705;28;20066;-73
2023/03/31 13:04:38;;;;;;;5.68;2.47;;;12.60;99.90;;;;;;5078594;28;20508;-72
2023/03/31 13:07:30;;;;;;;6.35;2.53;;;12.50;99.90;;;;;;5096877;28;20083;-72
2023/03/31 13:10:24;;;;;;;7.28;2.80;;;12.50;99.90;;;;;;5065448;28;20500;-72
2023/03/31 13:13:05;;;;;;;6.57;2.55;;;12.50;99.90;;;;;;5068557;28;20109;-72
2023/03/31 13:15:32;;;;;;;6.30;3.13;;;12.40;99.90;;;;;;5078954;28;20407;-73